createdAt,value
2022-09-17T00:01:22.311Z,10.30
2022-09-17T00:03:55.897Z,10.30
2022-09-17T00:06:24.794Z,10.40
2022-09-17T00:08:56.723Z,10.30
2022-09-17T00:11:30.057Z,10.40
2022-09-17T00:14:00.814Z,10.40
2022-09-17T00:16:33.014Z,10.40
2022-09-17T00:19:00.995Z,10.40
2022-09-17T00:21:28.385Z,10.40
2022-09-17T00:24:05.155Z,10.40
2022-09-17T00:26:33.331Z,10.40
2022-09-17T00:29:03.622Z,10.40
2022-09-17T00:31:31.273Z,10.40
2022-09-17T00:34:05.193Z,11.10
2022-09-17T00:36:34.984Z,10.50
2022-09-17T00:39:01.690Z,11.50
2022-09-17T00:41:31.333Z,10.50
2022-09-17T00:44:00.871Z,10.50
2022-09-17T00:46:44.512Z,10.60
2022-09-17T00:49:19.585Z,10.60
2022-09-17T00:52:00.312Z,10.60
2022-09-17T00:54:28.362Z,10.70
2022-09-17T00:56:55.291Z,10.70
2022-09-17T00:59:23.335Z,10.80
2022-09-17T01:01:50.526Z,10.80
2022-09-17T01:04:24.238Z,10.80
2022-09-17T01:07:00.920Z,10.90
2022-09-17T01:09:48.895Z,11.40
2022-09-17T01:12:31.671Z,10.90
2022-09-17T01:15:26.118Z,10.90
2022-09-17T01:18:09.041Z,10.90
2022-09-17T01:20:50.858Z,10.90
2022-09-17T01:23:57.075Z,10.90
2022-09-17T01:27:02.619Z,10.90
2022-09-17T01:29:47.438Z,10.90
2022-09-17T01:32:31.176Z,10.90
2022-09-17T01:35:21.482Z,10.90
2022-09-17T01:38:19.023Z,10.90
2022-09-17T01:41:08.097Z,10.80
2022-09-17T01:43:42.466Z,10.80
2022-09-17T01:46:23.086Z,10.80
2022-09-17T01:48:57.901Z,10.80
2022-09-17T01:51:28.997Z,10.80
2022-09-17T01:54:03.086Z,10.80
2022-09-17T01:56:38.479Z,10.80
2022-09-17T01:59:17.312Z,10.80
2022-09-17T02:01:51.646Z,10.80
2022-09-17T02:04:37.361Z,10.80
2022-09-17T02:07:09.080Z,10.80
2022-09-17T02:09:52.043Z,10.80
2022-09-17T02:12:23.359Z,10.80
2022-09-17T02:14:53.999Z,10.80
2022-09-17T02:17:49.794Z,10.90
2022-09-17T02:20:22.179Z,10.80
2022-09-17T02:23:02.586Z,11.70
2022-09-17T02:25:37.691Z,10.80
2022-09-17T02:28:17.465Z,11.30
2022-09-17T02:30:44.529Z,10.80
2022-09-17T02:33:14.702Z,11.10
2022-09-17T02:35:44.063Z,11.80
2022-09-17T02:38:11.427Z,10.90
2022-09-17T02:40:48.841Z,10.80
2022-09-17T02:43:56.378Z,12.10
2022-09-17T02:46:53.955Z,12.30
2022-09-17T02:49:50.191Z,10.80
2022-09-17T02:52:34.980Z,10.80
2022-09-17T02:55:12.998Z,10.80
2022-09-17T02:57:54.415Z,10.80
2022-09-17T03:00:22.995Z,10.80
2022-09-17T03:02:56.268Z,10.80
2022-09-17T03:05:25.071Z,10.80
2022-09-17T03:07:51.876Z,12.30
2022-09-17T03:10:20.017Z,10.90
2022-09-17T03:12:46.884Z,10.90
2022-09-17T03:15:13.707Z,10.90
2022-09-17T03:17:40.639Z,10.90
2022-09-17T03:20:08.138Z,10.90
2022-09-17T03:22:35.727Z,10.90
2022-09-17T03:25:02.427Z,11.20
2022-09-17T03:27:29.157Z,10.90
2022-09-17T03:29:56.227Z,10.90
2022-09-17T03:32:22.905Z,10.90
2022-09-17T03:34:49.553Z,10.90
2022-09-17T03:37:16.360Z,10.90
2022-09-17T03:39:43.127Z,11.00
2022-09-17T03:42:09.774Z,10.90
2022-09-17T03:44:36.500Z,11.00
2022-09-17T03:47:03.314Z,11.00
2022-09-17T03:49:29.980Z,11.00
2022-09-17T03:51:56.770Z,11.00
2022-09-17T03:54:23.463Z,11.10
2022-09-17T03:56:50.144Z,11.10
2022-09-17T03:59:16.914Z,11.50
2022-09-17T04:01:43.964Z,11.10
2022-09-17T04:04:10.938Z,11.10
2022-09-17T04:06:37.681Z,11.00
2022-09-17T04:09:05.432Z,11.00
2022-09-17T04:11:32.188Z,11.00
2022-09-17T04:13:59.066Z,11.00
2022-09-17T04:16:25.836Z,11.00
2022-09-17T04:18:52.679Z,11.00
2022-09-17T04:21:19.426Z,11.00
2022-09-17T04:23:46.286Z,11.00
2022-09-17T04:26:13.092Z,11.00
2022-09-17T04:28:39.763Z,11.50
2022-09-17T04:31:06.514Z,11.00
2022-09-17T04:33:33.368Z,11.00
2022-09-17T04:36:00.078Z,11.90
2022-09-17T04:38:26.770Z,11.00
2022-09-17T04:40:54.547Z,11.00
2022-09-17T04:43:21.248Z,11.10
2022-09-17T04:45:48.441Z,11.10
2022-09-17T04:48:15.158Z,12.50
2022-09-17T04:50:41.997Z,11.10
2022-09-17T04:53:08.695Z,11.10
2022-09-17T04:55:35.384Z,11.10
2022-09-17T04:58:02.080Z,11.10
2022-09-17T05:00:28.796Z,11.10
2022-09-17T05:02:56.097Z,11.10
2022-09-17T05:05:25.505Z,11.10
2022-09-17T05:07:52.194Z,11.10
2022-09-17T05:10:21.041Z,11.20
2022-09-17T05:12:52.516Z,11.10
2022-09-17T05:15:19.928Z,11.10
2022-09-17T05:17:47.272Z,11.10
2022-09-17T05:20:15.319Z,11.10
2022-09-17T05:22:50.552Z,11.10
2022-09-17T05:25:19.670Z,11.10
2022-09-17T05:27:46.489Z,11.10
2022-09-17T05:30:13.482Z,11.10
2022-09-17T05:32:40.825Z,11.10
2022-09-17T05:35:08.588Z,11.00
2022-09-17T05:37:35.313Z,11.10
2022-09-17T05:40:04.793Z,11.40
2022-09-17T05:42:31.609Z,11.10
2022-09-17T05:44:58.445Z,11.10
2022-09-17T05:47:26.285Z,11.20
2022-09-17T05:49:52.967Z,11.90
2022-09-17T05:52:19.702Z,11.20
2022-09-17T05:54:46.780Z,12.10
2022-09-17T05:57:13.518Z,11.20
2022-09-17T05:59:40.181Z,11.30
2022-09-17T06:02:06.935Z,11.30
2022-09-17T06:04:35.130Z,12.00
2022-09-17T06:07:07.363Z,11.40
2022-09-17T06:09:37.455Z,11.50
2022-09-17T06:12:05.372Z,11.60
2022-09-17T06:14:32.215Z,11.60
2022-09-17T06:16:58.978Z,11.70
2022-09-17T06:19:25.722Z,12.60
2022-09-17T06:21:52.381Z,11.70
2022-09-17T06:24:19.039Z,11.60
2022-09-17T06:26:45.883Z,11.70
2022-09-17T06:29:15.159Z,11.70
2022-09-17T06:31:44.956Z,11.70
2022-09-17T06:34:12.379Z,11.70
2022-09-17T06:36:39.207Z,11.80
2022-09-17T06:39:06.537Z,11.80
2022-09-17T06:41:33.459Z,11.80
2022-09-17T06:44:00.286Z,11.80
2022-09-17T06:46:27.613Z,11.80
2022-09-17T06:48:54.315Z,12.20
2022-09-17T06:51:22.588Z,11.80
2022-09-17T06:53:49.393Z,12.10
2022-09-17T06:56:16.644Z,11.80
2022-09-17T06:58:43.894Z,12.10
2022-09-17T07:01:12.334Z,11.80
2022-09-17T07:03:39.582Z,11.90
2022-09-17T07:06:12.709Z,12.40
2022-09-17T07:08:39.787Z,12.80
2022-09-17T07:11:08.118Z,12.00
2022-09-17T07:13:35.128Z,12.00
2022-09-17T07:16:03.948Z,12.00
2022-09-17T07:18:30.857Z,12.10
2022-09-17T07:21:00.272Z,13.20
2022-09-17T07:23:29.319Z,12.20
2022-09-17T07:25:58.646Z,12.20
2022-09-17T07:28:26.097Z,12.20
2022-09-17T07:30:53.643Z,12.20
2022-09-17T07:33:23.472Z,12.30
2022-09-17T07:36:01.636Z,12.30
2022-09-17T07:38:29.720Z,12.40
2022-09-17T07:41:04.933Z,12.40
2022-09-17T07:43:33.525Z,12.40
2022-09-17T07:46:02.039Z,12.40
2022-09-17T07:48:29.602Z,14.00
2022-09-17T07:50:56.859Z,12.50
2022-09-17T07:53:23.842Z,12.60
2022-09-17T07:55:58.630Z,12.70
2022-09-17T07:58:31.040Z,12.80
2022-09-17T08:01:05.632Z,12.90
2022-09-17T08:03:32.681Z,13.00
2022-09-17T08:06:07.148Z,13.10
2022-09-17T08:08:35.901Z,13.20
2022-09-17T08:11:04.568Z,13.30
2022-09-17T08:13:32.112Z,13.40
2022-09-17T08:16:05.433Z,14.10
2022-09-17T08:18:32.863Z,13.50
2022-09-17T08:21:01.165Z,13.50
2022-09-17T08:23:28.833Z,13.50
2022-09-17T08:25:57.032Z,13.50
2022-09-17T08:28:25.569Z,13.60
2022-09-17T08:30:53.178Z,13.70
2022-09-17T08:33:20.905Z,15.20
2022-09-17T08:35:59.731Z,14.10
2022-09-17T08:38:37.214Z,14.00
2022-09-17T08:41:11.592Z,14.00
2022-09-17T08:43:53.147Z,14.00
2022-09-17T08:46:19.998Z,14.10
2022-09-17T08:48:56.396Z,14.20
2022-09-17T08:51:48.803Z,14.30
2022-09-17T08:54:22.213Z,14.40
2022-09-17T08:56:58.712Z,14.50
2022-09-17T08:59:34.834Z,14.60
2022-09-17T09:02:33.848Z,14.70
2022-09-17T09:05:15.814Z,14.70
2022-09-17T09:08:14.766Z,15.20
2022-09-17T09:10:46.096Z,14.90
2022-09-17T09:13:17.659Z,14.90
2022-09-17T09:15:49.140Z,15.00
2022-09-17T09:18:25.878Z,15.10
2022-09-17T09:21:07.375Z,15.20
2022-09-17T09:24:01.705Z,15.20
2022-09-17T09:27:15.292Z,15.20
2022-09-17T09:30:06.560Z,15.10
2022-09-17T09:32:55.654Z,15.10
2022-09-17T09:35:35.866Z,15.10
2022-09-17T09:38:27.664Z,15.10
2022-09-17T09:41:11.643Z,15.10
2022-09-17T09:44:12.585Z,15.30
2022-09-17T09:47:07.760Z,15.40
2022-09-17T09:49:56.296Z,15.50
2022-09-17T09:52:44.983Z,15.60
2022-09-17T09:55:26.695Z,15.60
2022-09-17T09:58:19.597Z,15.50
2022-09-17T10:00:47.680Z,15.50
2022-09-17T10:03:32.388Z,15.50
2022-09-17T10:06:04.734Z,15.50
2022-09-17T10:08:34.511Z,15.40
2022-09-17T10:11:21.664Z,15.40
2022-09-17T10:13:48.506Z,15.40
2022-09-17T10:16:23.594Z,15.50
2022-09-17T10:19:10.964Z,15.50
2022-09-17T10:21:40.689Z,15.40
2022-09-17T10:24:27.835Z,15.40
2022-09-17T10:27:15.494Z,15.40
2022-09-17T10:29:47.485Z,15.50
2022-09-17T10:32:19.447Z,15.60
2022-09-17T10:35:04.888Z,15.60
2022-09-17T10:37:36.031Z,15.50
2022-09-17T10:40:22.890Z,16.10
2022-09-17T10:43:21.408Z,15.40
2022-09-17T10:45:58.945Z,15.40
2022-09-17T10:48:39.925Z,15.50
2022-09-17T10:51:08.961Z,15.50
2022-09-17T10:53:59.092Z,16.20
2022-09-17T10:56:33.556Z,15.90
2022-09-17T10:59:22.551Z,15.90
2022-09-17T11:01:56.648Z,16.10
2022-09-17T11:04:51.954Z,16.40
2022-09-17T11:07:34.228Z,16.10
2022-09-17T11:10:10.039Z,16.10
2022-09-17T11:13:13.130Z,16.00
2022-09-17T11:16:06.705Z,16.10
2022-09-17T11:19:06.789Z,16.10
2022-09-17T11:22:05.615Z,16.40
2022-09-17T11:24:51.107Z,16.20
2022-09-17T11:27:26.553Z,16.40
2022-09-17T11:30:15.779Z,16.40
2022-09-17T11:33:01.793Z,16.50
2022-09-17T11:35:36.748Z,16.50
2022-09-17T11:38:25.562Z,16.50
2022-09-17T11:41:11.049Z,16.70
2022-09-17T11:43:46.507Z,16.70
2022-09-17T11:46:29.719Z,16.80
2022-09-17T11:49:01.779Z,16.80
2022-09-17T11:51:31.811Z,16.80
2022-09-17T11:54:19.102Z,16.90
2022-09-17T11:56:49.717Z,16.80
2022-09-17T11:59:37.920Z,16.90
2022-09-17T12:02:44.028Z,16.80
2022-09-17T12:05:31.718Z,16.80
2022-09-17T12:08:14.482Z,16.80
2022-09-17T12:10:49.884Z,16.90
2022-09-17T12:13:22.370Z,17.60
2022-09-17T12:15:54.411Z,16.90
2022-09-17T12:18:58.930Z,17.00
2022-09-17T12:21:37.047Z,17.00
2022-09-17T12:24:19.145Z,17.10
2022-09-17T12:27:01.242Z,17.10
2022-09-17T12:29:38.513Z,17.00
2022-09-17T12:32:27.148Z,17.00
2022-09-17T12:35:05.902Z,16.90
2022-09-17T12:37:46.126Z,16.90
2022-09-17T12:40:25.301Z,16.90
2022-09-17T12:43:06.849Z,17.00
2022-09-17T12:45:50.505Z,17.10
2022-09-17T12:48:41.751Z,17.10
2022-09-17T12:51:14.197Z,17.10
2022-09-17T12:54:03.523Z,17.00
2022-09-17T12:56:48.572Z,17.10
2022-09-17T12:59:19.430Z,17.00
2022-09-17T13:02:18.142Z,17.00
2022-09-17T13:05:13.098Z,17.00
2022-09-17T13:07:45.941Z,16.80
2022-09-17T13:10:15.353Z,16.60
2022-09-17T13:13:11.367Z,16.50
2022-09-17T13:16:13.312Z,16.30
2022-09-17T13:19:22.022Z,16.10
2022-09-17T13:22:07.106Z,15.90
2022-09-17T13:24:35.071Z,15.80
2022-09-17T13:27:04.456Z,15.80
2022-09-17T13:29:46.570Z,15.70
2022-09-17T13:32:35.195Z,15.80
2022-09-17T13:35:14.586Z,16.00
2022-09-17T13:37:56.708Z,16.00
2022-09-17T13:40:26.472Z,16.10
2022-09-17T13:42:59.314Z,16.40
2022-09-17T13:45:26.705Z,16.30
2022-09-17T13:48:11.632Z,16.40
2022-09-17T13:50:43.646Z,16.60
2022-09-17T13:53:27.634Z,16.40
2022-09-17T13:56:01.064Z,16.80
2022-09-17T13:58:43.241Z,16.40
2022-09-17T14:01:13.587Z,16.40
2022-09-17T14:03:48.783Z,16.40
2022-09-17T14:06:15.430Z,16.30
2022-09-17T14:08:45.195Z,16.30
2022-09-17T14:11:24.349Z,16.30
2022-09-17T14:13:55.382Z,16.20
2022-09-17T14:16:37.726Z,16.20
2022-09-17T14:19:16.976Z,16.20
2022-09-17T14:22:00.936Z,16.60
2022-09-17T14:24:43.408Z,16.20
2022-09-17T14:27:28.631Z,16.20
2022-09-17T14:30:18.269Z,16.10
2022-09-17T14:33:08.799Z,16.00
2022-09-17T14:35:41.617Z,16.50
2022-09-17T14:38:28.883Z,15.90
2022-09-17T14:41:17.829Z,15.80
2022-09-17T14:44:05.615Z,15.80
2022-09-17T14:46:49.940Z,15.90
2022-09-17T14:49:30.469Z,15.90
2022-09-17T14:51:58.677Z,15.90
2022-09-17T14:54:35.102Z,16.70
2022-09-17T14:57:34.556Z,16.30
2022-09-17T15:00:01.489Z,16.00
2022-09-17T15:02:44.096Z,15.90
2022-09-17T15:05:36.209Z,15.90
2022-09-17T15:08:10.412Z,15.80
2022-09-17T15:10:48.094Z,15.80
2022-09-17T15:13:19.011Z,15.70
2022-09-17T15:16:16.564Z,15.70
2022-09-17T15:19:02.391Z,15.60
2022-09-17T15:21:36.747Z,15.60
2022-09-17T15:24:37.413Z,15.60
2022-09-17T15:27:21.064Z,15.50
2022-09-17T15:29:51.506Z,16.70
2022-09-17T15:32:19.264Z,15.60
2022-09-17T15:34:46.330Z,15.60
2022-09-17T15:37:21.826Z,15.50
2022-09-17T15:39:54.189Z,17.30
2022-09-17T15:42:27.787Z,15.50
2022-09-17T15:45:21.670Z,15.50
2022-09-17T15:47:49.589Z,15.20
2022-09-17T15:50:47.886Z,15.40
2022-09-17T15:53:21.950Z,15.40
2022-09-17T15:56:13.157Z,15.30
2022-09-17T15:58:43.089Z,15.30
2022-09-17T16:01:16.024Z,15.30
2022-09-17T16:03:45.767Z,15.20
2022-09-17T16:06:18.254Z,16.70
2022-09-17T16:08:56.212Z,15.40
2022-09-17T16:11:25.435Z,15.10
2022-09-17T16:13:54.666Z,15.10
2022-09-17T16:16:24.027Z,15.10
2022-09-17T16:18:51.129Z,15.00
2022-09-17T16:21:19.458Z,15.60
2022-09-17T16:23:46.779Z,15.00
2022-09-17T16:26:20.362Z,15.50
2022-09-17T16:28:50.612Z,15.10
2022-09-17T16:31:17.317Z,14.90
2022-09-17T16:33:44.017Z,14.90
2022-09-17T16:36:10.828Z,14.80
2022-09-17T16:38:38.779Z,14.80
2022-09-17T16:41:06.090Z,14.80
2022-09-17T16:43:33.797Z,14.80
2022-09-17T16:46:09.123Z,15.50
2022-09-17T16:48:36.220Z,16.40
2022-09-17T16:51:10.886Z,14.70
2022-09-17T16:53:38.774Z,15.30
2022-09-17T16:56:09.429Z,14.60
2022-09-17T16:58:36.413Z,14.60
2022-09-17T17:01:13.413Z,14.90
2022-09-17T17:03:40.551Z,14.30
2022-09-17T17:06:15.272Z,14.30
2022-09-17T17:08:41.945Z,14.20
2022-09-17T17:11:08.613Z,14.10
2022-09-17T17:13:35.630Z,14.90
2022-09-17T17:16:09.542Z,14.00
2022-09-17T17:18:36.639Z,14.00
2022-09-17T17:21:11.629Z,13.90
2022-09-17T17:23:38.407Z,13.90
2022-09-17T17:26:06.180Z,14.90
2022-09-17T17:28:35.193Z,13.80
2022-09-17T17:31:03.360Z,13.70
2022-09-17T17:33:30.243Z,14.50
2022-09-17T17:36:03.987Z,13.70
2022-09-17T17:38:34.176Z,13.70
2022-09-17T17:41:08.229Z,13.70
2022-09-17T17:43:35.427Z,13.70
2022-09-17T17:46:04.830Z,13.70
2022-09-17T17:48:31.534Z,13.70
2022-09-17T17:51:06.508Z,13.70
2022-09-17T17:53:33.293Z,13.70
2022-09-17T17:56:01.887Z,13.70
2022-09-17T17:58:28.778Z,13.70
2022-09-17T18:00:55.948Z,13.60
2022-09-17T18:03:25.210Z,13.60
2022-09-17T18:05:56.305Z,13.60
2022-09-17T18:08:24.299Z,14.20
2022-09-17T18:10:56.049Z,13.60
2022-09-17T18:13:24.070Z,13.60
2022-09-17T18:15:56.566Z,13.50
2022-09-17T18:18:24.373Z,13.50
2022-09-17T18:20:53.344Z,13.50
2022-09-17T18:23:21.045Z,13.50
2022-09-17T18:25:55.117Z,13.70
2022-09-17T18:28:22.628Z,13.50
2022-09-17T18:30:50.071Z,13.40
2022-09-17T18:33:21.784Z,13.40
2022-09-17T18:35:48.558Z,13.40
2022-09-17T18:38:16.490Z,13.40
2022-09-17T18:40:44.288Z,13.30
2022-09-17T18:43:11.032Z,13.30
2022-09-17T18:45:37.918Z,13.30
2022-09-17T18:48:05.963Z,13.30
2022-09-17T18:50:33.210Z,13.30
2022-09-17T18:53:00.160Z,13.50
2022-09-17T18:55:27.253Z,13.80
2022-09-17T18:57:57.068Z,13.10
2022-09-17T19:00:24.556Z,13.80
2022-09-17T19:02:51.374Z,13.00
2022-09-17T19:05:18.125Z,13.00
2022-09-17T19:07:48.553Z,13.00
2022-09-17T19:10:15.679Z,12.90
2022-09-17T19:12:42.552Z,12.80
2022-09-17T19:15:10.512Z,12.70
2022-09-17T19:17:37.541Z,12.70
2022-09-17T19:20:05.131Z,12.70
2022-09-17T19:22:32.549Z,12.60
2022-09-17T19:24:59.689Z,12.60
2022-09-17T19:27:26.565Z,12.50
2022-09-17T19:29:53.587Z,12.50
2022-09-17T19:32:20.717Z,12.40
2022-09-17T19:34:47.628Z,12.40
2022-09-17T19:37:14.439Z,12.30
2022-09-17T19:39:41.249Z,12.70
2022-09-17T19:42:08.127Z,13.80
2022-09-17T19:44:34.826Z,12.20
2022-09-17T19:47:01.596Z,12.10
2022-09-17T19:49:28.320Z,12.10
2022-09-17T19:51:55.247Z,13.50
2022-09-17T19:54:22.213Z,12.00
2022-09-17T19:56:49.023Z,12.00
2022-09-17T19:59:15.710Z,11.90
2022-09-17T20:01:46.100Z,12.30
2022-09-17T20:04:18.341Z,11.90
2022-09-17T20:06:47.203Z,11.80
2022-09-17T20:09:13.927Z,11.80
2022-09-17T20:11:42.153Z,11.70
2022-09-17T20:14:10.755Z,11.70
2022-09-17T20:16:39.163Z,11.80
2022-09-17T20:19:07.262Z,11.70
2022-09-17T20:21:34.305Z,11.70
2022-09-17T20:24:01.315Z,11.70
2022-09-17T20:26:28.342Z,11.60
2022-09-17T20:28:55.662Z,11.60
2022-09-17T20:31:25.027Z,11.50
2022-09-17T20:33:56.868Z,11.50
2022-09-17T20:36:33.537Z,11.50
2022-09-17T20:39:21.933Z,11.40
2022-09-17T20:41:51.188Z,11.40
2022-09-17T20:44:17.981Z,11.30
2022-09-17T20:46:48.527Z,11.30
2022-09-17T20:49:19.011Z,11.20
2022-09-17T20:51:45.893Z,11.20
2022-09-17T20:54:15.014Z,11.20
2022-09-17T20:56:44.353Z,11.20
2022-09-17T20:59:19.574Z,11.10
2022-09-17T21:01:51.328Z,11.00
2022-09-17T21:04:20.088Z,11.00
2022-09-17T21:06:47.716Z,11.00
2022-09-17T21:09:15.880Z,11.00
2022-09-17T21:11:47.418Z,10.90
2022-09-17T21:14:18.553Z,10.90
2022-09-17T21:16:45.853Z,10.90
2022-09-17T21:19:16.716Z,11.70
2022-09-17T21:21:43.995Z,10.80
2022-09-17T21:24:13.500Z,10.80
2022-09-17T21:26:40.293Z,10.70
2022-09-17T21:29:07.033Z,10.60
2022-09-17T21:31:37.068Z,10.60
2022-09-17T21:34:06.618Z,10.50
2022-09-17T21:36:37.340Z,11.00
2022-09-17T21:39:07.746Z,11.80
2022-09-17T21:41:37.589Z,10.40
2022-09-17T21:44:06.759Z,10.40
2022-09-17T21:46:35.367Z,10.30
2022-09-17T21:49:03.244Z,10.50
2022-09-17T21:51:43.822Z,10.30
2022-09-17T21:54:18.324Z,10.20
2022-09-17T21:56:46.103Z,10.20
2022-09-17T21:59:14.583Z,10.10
2022-09-17T22:01:47.341Z,10.10
2022-09-17T22:04:17.589Z,10.10
2022-09-17T22:06:48.320Z,10.10
2022-09-17T22:09:18.674Z,10.00
2022-09-17T22:11:49.450Z,10.20
2022-09-17T22:14:19.618Z,10.00
2022-09-17T22:16:48.953Z,10.20
2022-09-17T22:19:18.020Z,10.20
2022-09-17T22:21:47.437Z,9.90
2022-09-17T22:24:16.122Z,9.90
2022-09-17T22:26:45.927Z,9.80
2022-09-17T22:29:18.596Z,9.80
2022-09-17T22:31:46.412Z,9.80
2022-09-17T22:34:15.615Z,9.80
2022-09-17T22:36:42.316Z,9.80
2022-09-17T22:39:09.853Z,9.70
2022-09-17T22:41:44.439Z,9.70
2022-09-17T22:44:19.636Z,9.70
2022-09-17T22:46:48.633Z,9.60
2022-09-17T22:49:15.675Z,9.60
2022-09-17T22:51:44.365Z,10.30
2022-09-17T22:54:14.306Z,9.60
2022-09-17T22:56:44.722Z,9.50
2022-09-17T22:59:11.582Z,9.50
2022-09-17T23:01:40.324Z,9.50
2022-09-17T23:04:07.678Z,9.50
2022-09-17T23:06:41.071Z,9.50
2022-09-17T23:09:09.345Z,9.50
2022-09-17T23:11:39.938Z,9.40
2022-09-17T23:14:12.103Z,9.40
2022-09-17T23:16:44.723Z,9.40
2022-09-17T23:19:12.817Z,9.40
2022-09-17T23:21:40.393Z,9.30
2022-09-17T23:24:07.733Z,9.30
2022-09-17T23:26:34.819Z,9.30
2022-09-17T23:29:05.372Z,9.20
2022-09-17T23:31:34.748Z,9.80
2022-09-17T23:34:02.167Z,9.20
2022-09-17T23:36:31.830Z,9.20
2022-09-17T23:38:59.691Z,9.10
2022-09-17T23:41:32.222Z,9.10
2022-09-17T23:44:04.154Z,9.10
2022-09-17T23:46:33.425Z,9.00
2022-09-17T23:49:00.618Z,9.00
2022-09-17T23:51:30.695Z,9.00
2022-09-17T23:53:58.519Z,8.90
2022-09-17T23:56:27.223Z,8.90
2022-09-17T23:58:55.747Z,8.90
